Time;durP1;ratioP1;P1;durP2;ratioP2;P2;SDS_P1;SDS_P2;PMS_P1;PMS_P2;Temp;Humidity;BMP_temperature;BMP_pressure;BME280_temperature;BME280_humidity;BME280_pressure;Samples;Min_cycle;Max_cycle;Signal;HPM_P1;HPM_P2
2021/12/27 00:00:43;;;;;;;;;9.75;6.25;;;;;12.37;79.00;99823.00;5067597;28;45413;-56
2021/12/27 00:03:08;;;;;;;;;9.00;6.00;;;;;12.36;78.97;99814.25;5081587;28;45545;-56
2021/12/27 00:05:34;;;;;;;;;8.25;6.00;;;;;12.37;79.16;99813.28;5082455;28;46211;-57
2021/12/27 00:07:59;;;;;;;;;5.75;5.75;;;;;12.36;79.10;99805.50;5082499;28;45257;-57
2021/12/27 00:10:27;;;;;;;;;9.75;9.00;;;;;12.36;79.15;99808.13;5082646;27;45213;-57
2021/12/27 00:12:53;;;;;;;;;9.00;8.00;;;;;12.36;79.42;99798.41;5082503;28;45171;-56
2021/12/27 00:15:19;;;;;;;;;10.50;6.75;;;;;12.37;79.46;99796.59;5082483;28;45350;-57
2021/12/27 00:17:46;;;;;;;;;7.50;5.00;;;;;12.38;79.43;99796.47;5081979;28;45346;-56
2021/12/27 00:20:16;;;;;;;;;8.50;6.00;;;;;12.39;79.31;99789.38;5082606;28;45378;-57
2021/12/27 00:22:45;;;;;;;;;7.75;6.00;;;;;12.40;79.28;99794.56;5082366;28;45237;-55
2021/12/27 00:25:11;;;;;;;;;8.25;6.75;;;;;12.41;79.43;99796.25;5081923;28;45267;-56
2021/12/27 00:27:36;;;;;;;;;9.00;7.00;;;;;12.42;79.37;99789.16;5082473;28;45401;-56
2021/12/27 00:30:03;;;;;;;;;4.00;4.00;;;;;12.39;78.95;99790.22;5080924;28;45378;-57
2021/12/27 00:32:28;;;;;;;;;7.50;5.00;;;;;12.35;79.05;99782.69;5082035;28;45417;-56
2021/12/27 00:34:53;;;;;;;;;7.75;3.25;;;;;12.35;78.99;99780.06;5081608;28;46223;-56
2021/12/27 00:37:19;;;;;;;;;4.75;3.00;;;;;12.34;79.11;99776.56;5082237;28;45433;-56
2021/12/27 00:39:44;;;;;;;;;5.00;2.50;;;;;12.33;78.86;99777.53;5082161;28;45230;-56
2021/12/27 00:42:10;;;;;;;;;8.00;2.50;;;;;12.33;79.12;99769.63;5082309;28;45568;-57
2021/12/27 00:44:36;;;;;;;;;4.00;2.00;;;;;12.29;79.25;99768.19;5082010;28;46100;-56
2021/12/27 00:47:02;;;;;;;;;2.00;2.00;;;;;12.29;79.16;99769.03;5081644;28;45263;-55
2021/12/27 00:49:28;;;;;;;;;3.25;2.00;;;;;12.31;79.16;99771.53;5075385;28;45513;-55
2021/12/27 00:51:54;;;;;;;;;2.00;2.00;;;;;12.30;79.22;99775.13;5061919;28;45566;-56
2021/12/27 00:54:20;;;;;;;;;2.00;1.50;;;;;12.30;79.45;99770.69;5061602;28;45335;-55
2021/12/27 00:56:45;;;;;;;;;2.25;2.00;;;;;12.32;79.40;99769.72;5070754;28;45308;-56
2021/12/27 00:59:11;;;;;;;;;2.00;1.00;;;;;12.33;79.08;99766.16;5065976;28;45398;-55
2021/12/27 01:01:37;;;;;;;;;7.00;3.00;;;;;12.32;79.12;99767.09;5068221;28;45422;-56
2021/12/27 01:04:04;;;;;;;;;1.00;1.00;;;;;12.32;78.95;99767.91;5081553;27;46103;-55
2021/12/27 01:06:30;;;;;;;;;3.25;1.50;;;;;12.31;79.02;99760.97;5081819;28;45366;-56
2021/12/27 01:08:55;;;;;;;;;3.25;2.00;;;;;12.33;79.02;99768.78;5081805;28;45275;-56
2021/12/27 01:11:38;;;;;;;;;2.50;2.00;;;;;12.33;78.94;99752.94;5081608;28;45484;-56
2021/12/27 01:14:14;;;;;;;;;2.75;1.75;;;;;12.35;79.15;99757.13;5081458;28;45428;-57
2021/12/27 01:16:41;;;;;;;;;3.00;2.75;;;;;12.35;79.16;99753.66;5081239;28;45295;-56
2021/12/27 01:19:07;;;;;;;;;2.50;2.50;;;;;12.35;79.00;99762.41;5081387;28;45481;-57
2021/12/27 01:21:34;;;;;;;;;2.25;2.00;;;;;12.36;79.06;99750.03;5081573;28;45327;-56
2021/12/27 01:24:01;;;;;;;;;2.75;2.75;;;;;12.38;78.97;99753.38;5081191;28;45457;-56
2021/12/27 01:26:27;;;;;;;;;2.75;1.25;;;;;12.39;78.84;99747.97;5081329;28;45290;-56
2021/12/27 01:28:57;;;;;;;;;3.50;1.75;;;;;12.38;78.84;99748.94;5081241;28;45365;-57
2021/12/27 01:31:24;;;;;;;;;3.50;2.00;;;;;12.40;78.73;99739.09;5081204;28;45219;-56
2021/12/27 01:33:50;;;;;;;;;2.50;2.00;;;;;12.40;78.54;99744.38;5081019;28;45981;-55
2021/12/27 01:36:16;;;;;;;;;3.75;1.50;;;;;12.41;78.77;99737.31;5081024;28;45438;-57
2021/12/27 01:38:43;;;;;;;;;3.00;3.00;;;;;12.41;78.67;99734.66;5081272;28;45384;-56
2021/12/27 01:41:12;;;;;;;;;3.00;2.00;;;;;12.39;78.66;99728.66;5081032;28;45433;-57
2021/12/27 01:43:39;;;;;;;;;1.25;1.25;;;;;12.39;78.53;99728.66;5080950;28;46216;-56
2021/12/27 01:46:15;;;;;;;;;3.25;2.00;;;;;12.40;78.70;99730.31;5081167;28;45356;-56
2021/12/27 01:48:44;;;;;;;;;3.00;1.00;;;;;12.39;78.61;99728.66;5080906;28;45402;-56
2021/12/27 01:51:12;;;;;;;;;3.00;1.00;;;;;12.37;78.54;99720.84;5060712;28;45490;-56
2021/12/27 01:53:41;;;;;;;;;1.00;1.00;;;;;12.38;78.48;99724.31;5060753;28;46161;-56
2021/12/27 01:56:09;;;;;;;;;2.50;1.00;;;;;12.39;78.68;99720.72;5070511;28;45283;-56
2021/12/27 01:58:35;;;;;;;;;1.00;1.00;;;;;12.41;78.47;99722.28;5060901;28;45236;-56
2021/12/27 02:01:05;;;;;;;;;2.75;0.00;;;;;12.43;78.57;99723.00;5067315;28;45585;-56
2021/12/27 02:03:32;;;;;;;;;2.50;1.00;;;;;12.43;78.59;99728.28;5080729;28;46181;-56
2021/12/27 02:05:58;;;;;;;;;4.75;1.00;;;;;12.44;78.53;99729.94;5080818;28;45279;-55
2021/12/27 02:08:24;;;;;;;;;1.50;1.50;;;;;12.45;78.30;99728.16;5080987;28;45267;-56
2021/12/27 02:10:50;;;;;;;;;1.00;1.00;;;;;12.46;78.33;99730.66;5080786;28;45288;-57
2021/12/27 02:13:17;;;;;;;;;2.00;2.00;;;;;12.47;78.36;99727.03;5080968;28;46010;-56
2021/12/27 02:15:43;;;;;;;;;2.25;1.00;;;;;12.48;78.39;99722.59;5080712;28;45241;-56
2021/12/27 02:18:10;;;;;;;;;4.00;1.25;;;;;12.48;78.23;99722.59;5069035;28;45352;-56
2021/12/27 02:20:38;;;;;;;;;1.50;1.00;;;;;12.49;78.32;99719.84;5077477;28;45520;-57
2021/12/27 02:23:11;;;;;;;;;1.00;1.00;;;;;12.48;78.24;99714.66;5080734;28;46096;-55
2021/12/27 02:25:36;;;;;;;;;1.75;1.00;;;;;12.48;78.41;99718.19;5080444;28;45456;-55
2021/12/27 02:28:05;;;;;;;;;2.75;1.00;;;;;12.50;78.52;99718.03;5080639;28;45314;-56
2021/12/27 02:30:31;;;;;;;;;2.00;1.00;;;;;12.47;78.40;99705.91;5080665;28;45560;-56
2021/12/27 02:33:05;;;;;;;;;1.25;1.25;;;;;12.47;78.39;99705.91;5080051;28;46017;-56
2021/12/27 02:35:33;;;;;;;;;1.50;1.50;;;;;12.47;78.36;99700.63;5080458;28;45235;-56
2021/12/27 02:38:00;;;;;;;;;3.00;1.25;;;;;12.48;78.75;99694.41;5080697;28;45223;-56
2021/12/27 02:40:29;;;;;;;;;3.00;1.00;;;;;12.47;78.77;99697.97;5080655;28;45522;-56
2021/12/27 02:43:06;;;;;;;;;2.00;1.00;;;;;12.46;78.78;99701.59;5080516;27;45422;-56
2021/12/27 02:45:35;;;;;;;;;1.25;1.25;;;;;12.45;78.94;99699.09;5080321;28;45246;-57
2021/12/27 02:48:01;;;;;;;;;3.25;2.00;;;;;12.44;79.00;99700.91;5080059;28;45323;-57
2021/12/27 02:50:28;;;;;;;;;2.25;2.00;;;;;12.43;78.91;99688.66;5065512;28;45322;-57
2021/12/27 02:52:54;;;;;;;;;1.25;1.25;;;;;12.44;78.77;99695.63;5059794;28;45911;-57
2021/12/27 02:55:20;;;;;;;;;5.50;1.50;;;;;12.44;78.67;99686.84;5067598;28;45686;-56
2021/12/27 02:57:48;;;;;;;;;1.00;0.00;;;;;12.44;78.54;99684.22;5068331;27;45499;-55
2021/12/27 03:00:27;;;;;;;;;2.00;1.75;;;;;12.43;78.57;99679.91;5067447;28;45377;-55
2021/12/27 03:02:54;;;;;;;;;1.00;1.00;;;;;12.40;78.49;99673.09;5079997;28;45873;-60
2021/12/27 03:05:21;;;;;;;;;3.50;2.25;;;;;12.40;78.54;99673.09;5083556;28;45338;-56
2021/12/27 03:07:49;;;;;;;;;1.75;1.75;;;;;12.42;78.56;99672.94;5083614;28;45501;-55
2021/12/27 03:10:18;;;;;;;;;2.75;1.75;;;;;12.40;78.79;99669.56;5083652;28;45495;-57
2021/12/27 03:12:45;;;;;;;;;6.00;2.50;;;;;12.41;78.52;99676.56;5083322;27;45393;-55
2021/12/27 03:15:14;;;;;;;;;4.00;2.50;;;;;12.41;78.30;99674.75;5083201;28;45272;-56
2021/12/27 03:17:46;;;;;;;;;3.25;2.00;;;;;12.39;78.21;99676.66;5083247;28;45498;-55
2021/12/27 03:20:14;;;;;;;;;6.00;3.75;;;;;12.39;78.43;99674.03;5083599;28;45238;-56
2021/12/27 03:22:41;;;;;;;;;3.75;3.00;;;;;12.39;78.24;99674.03;5083210;28;46083;-57
2021/12/27 03:25:09;;;;;;;;;2.75;2.00;;;;;12.39;78.30;99671.38;5082999;28;45346;-56
2021/12/27 03:27:35;;;;;;;;;4.00;3.00;;;;;12.41;78.35;99663.34;5083503;28;45172;-56
2021/12/27 03:30:00;;;;;;;;;3.25;2.75;;;;;12.43;78.46;99656.13;5083004;28;45215;-56
2021/12/27 03:32:26;;;;;;;;;2.50;2.50;;;;;12.43;78.36;99664.88;5083022;28;46021;-57
2021/12/27 03:35:03;;;;;;;;;2.75;2.75;;;;;12.42;78.07;99662.38;5082984;27;45184;-56
2021/12/27 03:37:28;;;;;;;;;4.75;3.00;;;;;12.41;78.09;99642.22;5083502;28;45454;-55
2021/12/27 03:39:54;;;;;;;;;3.50;1.75;;;;;12.41;78.09;99643.06;5083037;28;45253;-56
2021/12/27 03:42:19;;;;;;;;;4.75;2.75;;;;;12.42;78.17;99646.53;5083215;28;46002;-56
2021/12/27 03:44:45;;;;;;;;;5.75;3.00;;;;;12.41;78.07;99648.34;5082877;28;45368;-56
2021/12/27 03:47:11;;;;;;;;;4.75;3.00;;;;;12.42;78.07;99649.19;5082853;28;45451;-55
2021/12/27 03:49:37;;;;;;;;;2.25;2.25;;;;;12.42;77.87;99643.91;5074959;28;45504;-57
2021/12/27 03:52:03;;;;;;;;;4.25;3.00;;;;;12.39;77.76;99629.13;5062716;28;45333;-56
2021/12/27 03:54:29;;;;;;;;;2.50;2.50;;;;;12.38;78.00;99627.44;5062412;28;45266;-57
2021/12/27 03:56:55;;;;;;;;;6.00;3.00;;;;;12.39;77.91;99637.03;5071908;28;45258;-56
2021/12/27 03:59:35;;;;;;;;;5.75;3.00;;;;;12.38;78.13;99631.91;5066747;28;45561;-56
2021/12/27 04:02:00;;;;;;;;;6.25;3.25;;;;;12.39;77.93;99628.28;5072179;28;46239;-56
2021/12/27 04:04:26;;;;;;;;;9.00;2.75;;;;;12.38;77.79;99623.97;5082369;28;45314;-56
2021/12/27 04:06:52;;;;;;;;;3.00;2.25;;;;;12.36;77.73;99624.13;5082808;27;45232;-56
2021/12/27 04:09:18;;;;;;;;;3.50;2.25;;;;;12.35;77.76;99625.09;5081612;28;45272;-56
2021/12/27 04:11:44;;;;;;;;;4.00;2.50;;;;;12.33;77.87;99619.09;5082387;28;45390;-55
2021/12/27 04:14:09;;;;;;;;;7.75;4.00;;;;;12.35;77.92;99621.59;5082449;28;45294;-56
2021/12/27 04:16:35;;;;;;;;;7.00;2.75;;;;;12.34;77.97;99618.13;5082439;28;45230;-56
2021/12/27 04:19:00;;;;;;;;;4.25;3.00;;;;;12.37;77.91;99622.31;5082533;28;45160;-56
2021/12/27 04:21:26;;;;;;;;;3.25;2.50;;;;;12.38;77.94;99616.06;5082554;28;45227;-56
2021/12/27 04:23:51;;;;;;;;;6.00;3.00;;;;;12.39;77.74;99618.56;5081782;28;45153;-56
2021/12/27 04:26:17;;;;;;;;;3.75;2.50;;;;;12.41;77.73;99614.00;5082284;28;45294;-55
2021/12/27 04:28:42;;;;;;;;;9.25;4.00;;;;;12.42;77.89;99609.56;5082265;28;45227;-56
2021/12/27 04:31:08;;;;;;;;;5.75;3.00;;;;;12.40;77.85;99599.13;5081917;28;45254;-56
2021/12/27 04:33:35;;;;;;;;;10.25;3.00;;;;;12.43;77.92;99611.22;5082026;28;45419;-56
2021/12/27 04:36:00;;;;;;;;;5.00;3.50;;;;;12.42;77.54;99606.91;5082343;28;45403;-56
2021/12/27 04:38:26;;;;;;;;;3.50;3.00;;;;;12.43;77.78;99616.50;5082153;28;45321;-56
2021/12/27 04:40:52;;;;;;;;;7.50;3.00;;;;;12.44;77.73;99610.25;5082054;28;45465;-55
2021/12/27 04:43:23;;;;;;;;;4.00;3.00;;;;;12.41;77.44;99614.00;5082222;28;45330;-57
2021/12/27 04:45:50;;;;;;;;;5.75;2.75;;;;;12.41;77.58;99614.00;5082355;28;45574;-56
2021/12/27 04:48:18;;;;;;;;;4.50;3.00;;;;;12.41;77.76;99613.16;5081733;28;45428;-56
2021/12/27 04:50:43;;;;;;;;;8.50;4.00;;;;;12.41;77.48;99616.66;5064443;28;45376;-56
2021/12/27 04:53:09;;;;;;;;;9.50;5.00;;;;;12.40;77.66;99614.97;5061438;28;45462;-56
2021/12/27 04:55:35;;;;;;;;;9.50;2.75;;;;;12.41;77.71;99632.50;5068016;28;45504;-55
2021/12/27 04:58:01;;;;;;;;;6.25;3.25;;;;;12.43;77.67;99624.44;5064529;28;45375;-55
2021/12/27 05:00:27;;;;;;;;;4.00;4.00;;;;;12.43;77.61;99635.84;5065623;28;45378;-57
2021/12/27 05:02:52;;;;;;;;;5.00;4.25;;;;;12.43;77.54;99630.56;5078385;28;45234;-56
2021/12/27 05:05:18;;;;;;;;;11.25;5.50;;;;;12.43;77.58;99640.28;5081793;28;45222;-57
2021/12/27 05:07:47;;;;;;;;;3.75;3.50;;;;;12.45;77.67;99640.97;5081849;28;45464;-56
2021/12/27 05:10:16;;;;;;;;;12.00;5.25;;;;;12.47;77.47;99644.31;5081520;28;45414;-56
2021/12/27 05:12:42;;;;;;;;;5.00;4.25;;;;;12.46;77.54;99651.41;5081393;28;45254;-56
2021/12/27 05:15:08;;;;;;;;;7.50;5.00;;;;;12.47;77.58;99650.44;5081582;28;45156;-56
2021/12/27 05:17:33;;;;;;;;;9.75;5.00;;;;;12.48;77.56;99648.63;5080550;28;45239;-56
2021/12/27 05:20:04;;;;;;;;;4.50;3.00;;;;;12.48;77.58;99646.84;5081457;28;46189;-56
2021/12/27 05:22:29;;;;;;;;;9.25;4.75;;;;;12.47;77.43;99645.16;5081330;28;45405;-57
2021/12/27 05:24:54;;;;;;;;;5.00;5.00;;;;;12.48;77.58;99646.00;5081547;28;45254;-57
2021/12/27 05:27:20;;;;;;;;;3.75;3.50;;;;;12.49;77.51;99640.59;5081481;28;45164;-56
2021/12/27 05:29:45;;;;;;;;;8.50;4.00;;;;;12.48;77.25;99631.00;5081169;28;45811;-57
2021/12/27 05:32:11;;;;;;;;;5.75;3.00;;;;;12.50;77.30;99631.72;5080864;28;45156;-55
2021/12/27 05:34:36;;;;;;;;;5.00;4.25;;;;;12.50;77.24;99630.88;5081683;28;45296;-56
2021/12/27 05:37:03;;;;;;;;;6.25;4.50;;;;;12.51;77.17;99630.75;5081210;28;45217;-60
2021/12/27 05:39:28;;;;;;;;;4.50;4.50;;;;;12.49;77.33;99623.91;5081361;28;47115;-57
2021/12/27 05:41:54;;;;;;;;;10.50;4.00;;;;;12.48;77.24;99620.44;5081062;28;45433;-57
2021/12/27 05:44:19;;;;;;;;;8.00;5.00;;;;;12.46;77.24;99606.50;5081450;28;45459;-57
2021/12/27 05:46:45;;;;;;;;;4.00;4.00;;;;;12.46;77.16;99601.22;5080981;28;45311;-56
2021/12/27 05:49:10;;;;;;;;;5.50;4.25;;;;;12.44;77.42;99587.31;5076846;28;45402;-56
2021/12/27 05:51:36;;;;;;;;;6.25;5.00;;;;;12.42;77.30;99586.63;5060932;28;45322;-59
2021/12/27 05:54:04;;;;;;;;;9.75;9.50;;;;;12.41;77.51;99569.09;5061022;28;45260;-57
2021/12/27 05:56:30;;;;;;;;;11.25;3.25;;;;;12.42;77.24;99569.94;5070120;28;45338;-57
2021/12/27 05:58:55;;;;;;;;;8.00;4.75;;;;;12.40;77.39;99562.16;5063077;28;45329;-57
2021/12/27 06:01:21;;;;;;;;;6.25;4.25;;;;;12.40;77.36;99554.25;5067016;27;45310;-56
2021/12/27 06:03:46;;;;;;;;;5.25;3.50;;;;;12.39;77.15;99544.63;5081097;27;45169;-56
2021/12/27 06:06:14;;;;;;;;;12.00;4.00;;;;;12.39;77.32;99535.84;5080993;28;45390;-56
2021/12/27 06:08:40;;;;;;;;;5.75;4.25;;;;;12.37;77.24;99529.88;5081062;28;45483;-57
2021/12/27 06:11:05;;;;;;;;;8.50;5.50;;;;;12.37;77.27;99525.44;5080454;28;45295;-56
2021/12/27 06:13:30;;;;;;;;;6.00;6.00;;;;;12.37;77.55;99514.03;5081236;28;45337;-55
2021/12/27 06:15:56;;;;;;;;;9.75;5.50;;;;;12.35;77.30;99500.13;5080880;28;45473;-57
2021/12/27 06:18:21;;;;;;;;;10.00;6.00;;;;;12.34;77.28;99495.81;5080540;28;45912;-55
2021/12/27 06:20:47;;;;;;;;;16.00;12.50;;;;;12.32;77.29;99488.00;5080549;28;45568;-57
2021/12/27 06:23:12;;;;;;;;;35.00;31.25;;;;;12.30;77.17;99472.31;5080811;28;45366;-56
2021/12/27 06:25:38;;;;;;;;;44.75;37.00;;;;;12.29;77.04;99461.88;5080628;28;45243;-57
2021/12/27 06:28:04;;;;;;;;;55.50;44.25;;;;;12.27;77.17;99455.91;5080662;28;45344;-55
2021/12/27 06:30:30;;;;;;;;;54.50;44.25;;;;;12.24;77.26;99449.09;5083879;28;45259;-56
2021/12/27 06:32:55;;;;;;;;;38.50;35.75;;;;;12.23;77.13;99439.47;5082657;28;45339;-57
2021/12/27 06:35:21;;;;;;;;;44.00;34.00;;;;;12.19;77.02;99432.81;5064772;28;45496;-56
2021/12/27 06:37:47;;;;;;;;;25.25;22.75;;;;;12.15;76.93;99420.00;5074458;28;45954;-57
2021/12/27 06:40:14;;;;;;;;;23.50;18.50;;;;;12.14;77.06;99426.25;5083792;28;45234;-57
2021/12/27 06:42:40;;;;;;;;;18.00;12.25;;;;;12.12;77.08;99420.28;5084087;28;45369;-56
2021/12/27 06:45:07;;;;;;;;;13.00;10.50;;;;;12.10;77.06;99415.13;5083865;28;45519;-56
2021/12/27 06:47:32;;;;;;;;;15.25;9.25;;;;;12.08;76.99;99408.28;5083557;28;45446;-56
2021/12/27 06:49:58;;;;;;;;;11.25;10.00;;;;;12.06;76.94;99407.59;5072524;28;45266;-56
2021/12/27 06:52:24;;;;;;;;;6.00;5.00;;;;;12.03;76.98;99406.06;5063797;28;45260;-58
2021/12/27 06:54:50;;;;;;;;;8.75;4.25;;;;;12.00;76.61;99406.31;5063548;28;45206;-56
2021/12/27 06:57:18;;;;;;;;;5.00;5.00;;;;;11.96;76.65;99400.47;5072465;27;45325;-57
2021/12/27 06:59:44;;;;;;;;;5.50;4.50;;;;;11.94;76.81;99402.44;5067953;28;45427;-56
2021/12/27 07:02:10;;;;;;;;;10.25;8.00;;;;;11.94;76.93;99409.50;5072981;28;45280;-54
2021/12/27 07:04:36;;;;;;;;;6.75;4.00;;;;;11.91;76.96;99404.47;5065283;28;45261;-56
2021/12/27 07:07:02;;;;;;;;;8.00;5.00;;;;;11.90;76.74;99408.91;5063168;28;46085;-56
2021/12/27 07:09:27;;;;;;;;;7.75;3.75;;;;;11.88;76.69;99408.22;5063249;28;45328;-56
2021/12/27 07:11:53;;;;;;;;;6.25;4.00;;;;;11.87;76.65;99411.84;5063251;28;45295;-57
2021/12/27 07:14:18;;;;;;;;;5.00;4.25;;;;;11.84;76.77;99412.06;5063246;28;45257;-56
2021/12/27 07:16:44;;;;;;;;;6.25;5.00;;;;;11.84;76.58;99409.44;5062588;28;45752;-56
2021/12/27 07:19:09;;;;;;;;;5.00;4.25;;;;;11.83;76.62;99412.22;5063002;28;45255;-56
2021/12/27 07:21:35;;;;;;;;;8.50;4.00;;;;;11.80;76.52;99405.41;5063155;28;45284;-57
2021/12/27 07:24:00;;;;;;;;;4.25;4.00;;;;;11.79;76.58;99395.78;5062973;28;45141;-55
2021/12/27 07:26:26;;;;;;;;;6.00;4.00;;;;;11.78;76.92;99394.13;5062831;28;45335;-57
2021/12/27 07:28:51;;;;;;;;;8.25;6.75;;;;;11.78;76.63;99398.56;5062839;28;45461;-56
2021/12/27 07:31:17;;;;;;;;;2.25;2.00;;;;;11.75;76.49;99404.91;5062802;28;45374;-57
2021/12/27 07:33:42;;;;;;;;;8.00;5.50;;;;;11.73;76.44;99412.97;5062815;28;45261;-56
2021/12/27 07:36:10;;;;;;;;;7.25;5.00;;;;;11.72;76.58;99413.09;5062948;28;45311;-55
2021/12/27 07:38:36;;;;;;;;;7.75;4.00;;;;;11.68;76.88;99417.78;5062480;28;45284;-57
2021/12/27 07:41:02;;;;;;;;;4.50;4.25;;;;;11.65;76.52;99419.88;5062715;28;45471;-56
2021/12/27 07:43:28;;;;;;;;;6.25;4.00;;;;;11.63;76.89;99427.91;5062815;28;45576;-56
2021/12/27 07:45:53;;;;;;;;;14.75;9.00;;;;;11.61;77.04;99414.03;5062789;28;45311;-56
2021/12/27 07:48:19;;;;;;;;;4.25;4.25;;;;;11.61;76.90;99421.06;5062131;28;45383;-56
2021/12/27 07:50:44;;;;;;;;;6.50;5.00;;;;;11.59;76.93;99415.09;5062744;28;45263;-56
2021/12/27 07:53:10;;;;;;;;;8.00;5.00;;;;;11.58;76.82;99422.19;5080151;28;45300;-57
2021/12/27 07:55:35;;;;;;;;;9.25;5.25;;;;;11.56;76.92;99426.75;5082861;28;45579;-56
2021/12/27 07:58:01;;;;;;;;;7.25;6.00;;;;;11.56;76.83;99418.84;5065488;27;45317;-55
2021/12/27 08:00:28;;;;;;;;;4.50;3.75;;;;;11.58;76.70;99421.34;5067683;28;45213;-56
2021/12/27 08:02:55;;;;;;;;;5.00;4.50;;;;;11.59;76.51;99413.31;5079801;28;45610;-56
2021/12/27 08:05:21;;;;;;;;;1.00;0.00;;;;;11.56;76.73;99408.31;5082461;28;45369;-55
2021/12/27 08:07:47;;;;;;;;;4.00;4.00;;;;;11.55;76.50;99417.19;5082510;28;45298;-56
2021/12/27 08:10:14;;;;;;;;;4.00;3.00;;;;;11.56;76.86;99415.38;5082733;28;45369;-56
2021/12/27 08:12:40;;;;;;;;;3.50;3.00;;;;;11.54;76.96;99412.03;5082589;28;45310;-56
2021/12/27 08:15:07;;;;;;;;;4.75;4.00;;;;;11.53;76.73;99415.63;5082563;28;46193;-56
2021/12/27 08:17:34;;;;;;;;;3.00;3.00;;;;;11.51;76.70;99407.84;5082213;28;45397;-55
2021/12/27 08:19:59;;;;;;;;;3.25;3.25;;;;;11.51;77.09;99413.13;5082732;28;45277;-56
2021/12/27 08:22:25;;;;;;;;;5.25;4.25;;;;;11.51;76.56;99399.09;5082309;28;45372;-57
2021/12/27 08:24:51;;;;;;;;;3.75;2.00;;;;;11.50;76.32;99394.78;5082447;27;46018;-54
2021/12/27 08:27:21;;;;;;;;;6.50;5.00;;;;;11.48;76.76;99394.09;5082214;28;45332;-56
2021/12/27 08:29:46;;;;;;;;;3.75;3.75;;;;;11.47;76.35;99390.63;5082223;28;45255;-56
2021/12/27 08:32:12;;;;;;;;;4.00;4.00;;;;;11.46;76.32;99391.59;5081876;28;45687;-56
2021/12/27 08:34:38;;;;;;;;;3.25;3.00;;;;;11.48;76.46;99394.09;5082372;28;46103;-56
2021/12/27 08:37:04;;;;;;;;;3.50;3.00;;;;;11.49;76.41;99393.13;5081779;28;45229;-57
2021/12/27 08:39:30;;;;;;;;;3.25;3.00;;;;;11.49;76.48;99398.41;5082509;28;45163;-56
2021/12/27 08:41:57;;;;;;;;;4.00;3.00;;;;;11.49;75.95;99388.69;5082145;28;45768;-56
2021/12/27 08:44:22;;;;;;;;;2.00;2.00;;;;;11.50;76.06;99389.50;5082085;28;45349;-56
2021/12/27 08:46:48;;;;;;;;;9.00;6.50;;;;;11.53;76.33;99397.16;5081475;28;45390;-56
2021/12/27 08:49:14;;;;;;;;;3.75;3.75;;;;;11.53;75.96;99395.34;5077466;28;45330;-55
2021/12/27 08:51:40;;;;;;;;;3.25;3.00;;;;;11.54;75.87;99388.31;5060844;28;45406;-56
2021/12/27 08:54:05;;;;;;;;;4.00;3.50;;;;;11.54;76.44;99380.41;5061426;28;45564;-56
2021/12/27 08:56:31;;;;;;;;;4.00;4.00;;;;;11.56;75.98;99368.75;5070040;28;45282;-56
2021/12/27 08:58:58;;;;;;;;;9.00;3.00;;;;;11.56;75.76;99366.09;5063988;28;45418;-56
2021/12/27 09:01:24;;;;;;;;;3.50;3.50;;;;;11.55;76.11;99367.06;5067220;28;45227;-56
2021/12/27 09:03:49;;;;;;;;;5.00;4.00;;;;;11.58;76.03;99365.97;5081639;27;45834;-56
2021/12/27 09:06:15;;;;;;;;;3.25;3.00;;;;;11.60;76.02;99361.38;5081795;28;45222;-56
2021/12/27 09:08:41;;;;;;;;;4.00;4.00;;;;;11.62;76.08;99367.38;5080658;28;45406;-57
2021/12/27 09:11:07;;;;;;;;;2.25;1.75;;;;;11.63;75.93;99376.97;5081705;28;45320;-56
2021/12/27 09:13:36;;;;;;;;;4.25;3.00;;;;;11.65;76.13;99373.22;5081573;28;45345;-56
2021/12/27 09:16:03;;;;;;;;;5.00;3.00;;;;;11.66;76.07;99377.53;5081160;28;45274;-55
2021/12/27 09:18:31;;;;;;;;;5.50;4.25;;;;;11.69;75.69;99374.66;5081556;28;45506;-57
2021/12/27 09:20:56;;;;;;;;;4.50;4.00;;;;;11.71;75.85;99375.34;5081156;28;45566;-57
2021/12/27 09:23:22;;;;;;;;;3.50;3.25;;;;;11.72;76.02;99377.00;5081276;28;45588;-55
2021/12/27 09:25:48;;;;;;;;;2.75;2.00;;;;;11.73;75.87;99373.41;5081240;28;45264;-56
2021/12/27 09:28:14;;;;;;;;;4.50;3.00;;;;;11.72;75.76;99361.19;5081598;28;45361;-55
2021/12/27 09:30:40;;;;;;;;;5.00;3.00;;;;;11.74;75.91;99359.25;5081438;28;45393;-56
2021/12/27 09:33:06;;;;;;;;;3.00;3.00;;;;;11.78;75.84;99359.00;5081048;28;46180;-56
2021/12/27 09:35:32;;;;;;;;;4.00;2.75;;;;;11.78;75.72;99353.72;5081294;28;45283;-56
2021/12/27 09:37:58;;;;;;;;;5.00;2.25;;;;;11.77;75.39;99355.53;5081456;28;45235;-56
2021/12/27 09:40:23;;;;;;;;;3.00;2.50;;;;;11.77;75.58;99350.25;5081230;28;45483;-57
2021/12/27 09:42:51;;;;;;;;;3.75;3.00;;;;;11.79;75.45;99348.31;5081240;28;45357;-55
2021/12/27 09:45:17;;;;;;;;;4.50;3.00;;;;;11.83;75.63;99348.91;5081009;28;45313;-57
2021/12/27 09:47:44;;;;;;;;;3.00;3.00;;;;;11.83;75.41;99341.81;5079830;28;45403;-56
2021/12/27 09:50:12;;;;;;;;;6.25;3.50;;;;;11.84;75.17;99350.56;5068334;28;45369;-56
2021/12/27 09:52:39;;;;;;;;;3.50;3.50;;;;;11.83;75.32;99335.69;5060533;28;45224;-56
2021/12/27 09:55:05;;;;;;;;;2.75;2.00;;;;;11.83;75.46;99340.97;5062620;28;45290;-55
2021/12/27 09:57:33;;;;;;;;;6.00;3.00;;;;;11.81;75.32;99338.47;5068493;28;45420;-56
2021/12/27 09:59:58;;;;;;;;;4.00;3.50;;;;;11.81;75.51;99345.56;5065396;28;45471;-56
2021/12/27 10:02:25;;;;;;;;;2.50;2.25;;;;;11.80;75.62;99343.88;5074829;28;45922;-56
2021/12/27 10:04:51;;;;;;;;;4.00;3.00;;;;;11.78;75.55;99345.81;5084774;28;45328;-55
2021/12/27 10:07:24;;;;;;;;;4.25;3.00;;;;;11.79;75.66;99347.47;5084550;28;45378;-54
2021/12/27 10:09:55;;;;;;;;;4.75;3.00;;;;;11.78;75.72;99348.44;5084729;28;45415;-56
2021/12/27 10:12:22;;;;;;;;;3.00;3.00;;;;;11.76;75.81;99345.91;5084200;28;45368;-57
2021/12/27 10:14:59;;;;;;;;;4.75;3.75;;;;;11.73;75.99;99354.09;5084707;28;45451;-56
2021/12/27 10:17:25;;;;;;;;;4.00;4.00;;;;;11.74;76.06;99351.31;5084126;28;45277;-56
2021/12/27 10:19:53;;;;;;;;;6.50;2.25;;;;;11.75;76.07;99354.81;5084535;28;45413;-55
2021/12/27 10:22:20;;;;;;;;;9.00;4.00;;;;;11.77;76.28;99352.88;5084201;28;45330;-56
2021/12/27 10:24:50;;;;;;;;;4.00;3.00;;;;;11.76;76.33;99348.56;5084185;28;45333;-56
2021/12/27 10:27:18;;;;;;;;;5.25;3.25;;;;;11.78;76.44;99346.63;5084174;28;45223;-55
2021/12/27 10:29:43;;;;;;;;;3.50;3.00;;;;;11.80;76.55;99338.59;5084253;28;45404;-55
2021/12/27 10:32:16;;;;;;;;;3.00;3.00;;;;;11.79;76.61;99337.75;5083620;28;46150;-55
2021/12/27 10:34:48;;;;;;;;;3.25;3.25;;;;;11.77;76.47;99330.91;5084127;28;45405;-56
2021/12/27 10:37:24;;;;;;;;;3.00;3.00;;;;;11.76;76.63;99335.34;5084128;28;45325;-56
2021/12/27 10:39:52;;;;;;;;;4.00;3.00;;;;;11.76;76.63;99332.72;5084113;28;45264;-56
2021/12/27 10:42:50;;;;;;;;;3.50;3.00;;;;;11.76;76.71;99332.72;5083956;28;46094;-56
2021/12/27 10:45:20;;;;;;;;;3.75;3.25;;;;;11.78;76.79;99319.44;5083206;28;45272;-56
2021/12/27 10:47:47;;;;;;;;;2.75;2.75;;;;;11.79;76.94;99319.28;5083633;28;45253;-56
2021/12/27 10:50:15;;;;;;;;;3.00;3.00;;;;;11.82;76.89;99323.47;5070947;28;45524;-54
2021/12/27 10:52:42;;;;;;;;;3.00;3.00;;;;;11.84;76.64;99327.66;5062211;28;45395;-55
2021/12/27 10:55:08;;;;;;;;;5.00;4.00;;;;;11.86;76.65;99328.38;5066201;28;45253;-55
2021/12/27 10:57:33;;;;;;;;;4.00;4.00;;;;;11.83;76.38;99328.63;5069663;27;45419;-56
2021/12/27 11:00:29;;;;;;;;;3.50;3.00;;;;;11.83;76.30;99327.78;5066147;28;45404;-56
2021/12/27 11:02:58;;;;;;;;;3.75;3.00;;;;;11.83;76.49;99331.25;5080521;28;45351;-56
2021/12/27 11:05:26;;;;;;;;;5.00;4.00;;;;;11.84;76.46;99326.81;5083377;28;45169;-56
2021/12/27 11:07:54;;;;;;;;;3.00;3.00;;;;;11.83;76.31;99338.34;5083545;28;45535;-55
2021/12/27 11:10:21;;;;;;;;;1.75;1.75;;;;;11.81;76.48;99337.66;5083601;28;45558;-53
2021/12/27 11:12:49;;;;;;;;;4.00;3.00;;;;;11.87;76.55;99350.31;5083290;28;46344;-55
2021/12/27 11:15:15;;;;;;;;;2.75;2.00;;;;;11.89;76.72;99346.56;5082581;27;45283;-56
2021/12/27 11:17:40;;;;;;;;;5.25;4.00;;;;;11.94;76.65;99348.81;5081692;28;45383;-56
2021/12/27 11:20:08;;;;;;;;;5.75;4.00;;;;;11.93;76.91;99347.97;5083564;28;45339;-56
2021/12/27 11:22:40;;;;;;;;;4.25;3.25;;;;;11.95;76.74;99347.84;5083217;28;45430;-55
2021/12/27 11:25:19;;;;;;;;;3.25;3.00;;;;;11.96;76.84;99346.88;5083206;28;45346;-56
2021/12/27 11:27:44;;;;;;;;;5.00;5.00;;;;;11.97;76.64;99351.19;5083677;28;45504;-55
2021/12/27 11:30:12;;;;;;;;;5.00;5.00;;;;;11.96;76.66;99347.69;5082923;28;45334;-56